YPKG/KGI METAR and TAF weather

Enter ICAO airport designator
Station Type Date Time Source
YPKG METAR 2020/10/22 04:00 UTC NOAA

YPKG 220400Z AUTO 18011KT 9999 // SCT031 SCT049 OVC058 20/11 Q1013


Station Type Date Time Source
YPKG Decoded METAR 2020/10/22 04:00 UTC NOAA

Kalgoorlie Boulder Amo, Australia (YPKG) 30-47S 121-27E 370M
Oct 22, 2020 - 12:00 AM EDT / 2020.10.22 0400 UTC
Wind: from the S (180 degrees) at 13 MPH (11 KT):0
Visibility: greater than 7 mile(s):0
Sky conditions: overcast
Temperature: 68 F (20 C)
Dew Point: 51 F (11 C)
Relative Humidity: 56%
Pressure (altimeter): 29.91 in. Hg (1013 hPa)
ob: YPKG 220400Z AUTO 18011KT 9999 // SCT031 SCT049 OVC058 20/11 Q1013
cycle: 4

Station Type Date Time Source
YPKG TAF 2020/10/22 00:00 UTC NOAA

TAF
AMD YPKG 220017Z 2200/2300 17014KT 9999 BKN025
FM220300 17014KT 9999 SCT050
FM220900 16012KT 9999 SCT030
BECMG 2216/2218 12012KT 9999 BKN012

Example: see airport list